Time;durP1;ratioP1;P1;durP2;ratioP2;P2;SDS_P1;SDS_P2;PMS_P1;PMS_P2;Temp;Humidity;BMP_temperature;BMP_pressure;BME280_temperature;BME280_humidity;BME280_pressure;Samples;Min_cycle;Max_cycle;Signal;HPM_P1;HPM_P2
2022/03/24 00:00:26;;;;;;;;;40.40;35.60;;;;;16.88;31.12;102215.50;2088585;28;47495;-63
2022/03/24 00:01:27;;;;;;;;;47.00;39.75;;;;;16.89;30.82;102211.91;2077716;28;47240;-63
2022/03/24 00:02:27;;;;;;;;;44.75;36.50;;;;;16.89;30.98;102211.03;2088455;28;47753;-64
2022/03/24 00:03:28;;;;;;;;;51.25;41.50;;;;;16.88;31.12;102211.94;2095355;28;47711;-61
2022/03/24 00:04:28;;;;;;;;;48.25;39.75;;;;;16.87;30.89;102215.56;2095164;28;47663;-62
2022/03/24 00:05:29;;;;;;;;;46.25;39.75;;;;;16.86;30.83;102208.44;2104286;28;47844;-63
2022/03/24 00:06:30;;;;;;;;;40.60;34.80;;;;;16.85;30.78;102212.03;2104061;28;48516;-64
2022/03/24 00:07:31;;;;;;;;;48.20;40.80;;;;;16.83;30.65;102208.50;2104237;28;47749;-61
2022/03/24 00:08:31;;;;;;;;;46.00;39.00;;;;;16.83;30.67;102209.41;2104149;27;47886;-62
2022/03/24 00:09:32;;;;;;;;;45.75;37.50;;;;;16.81;30.58;102211.22;2104015;27;47954;-62
2022/03/24 00:10:33;;;;;;;;;49.40;39.40;;;;;16.79;30.64;102207.72;2104447;27;47857;-64
2022/03/24 00:11:34;;;;;;;;;49.00;41.00;;;;;16.79;30.74;102206.84;2104189;27;47534;-62
2022/03/24 00:12:36;;;;;;;;;36.20;32.00;;;;;16.80;31.13;102216.63;2104135;28;48045;-63
2022/03/24 00:13:36;;;;;;;;;45.40;37.80;;;;;16.78;30.73;102211.31;2104085;28;47904;-64
2022/03/24 00:14:37;;;;;;;;;37.25;34.00;;;;;16.76;31.06;102211.31;2103856;28;47482;-61
2022/03/24 00:15:38;;;;;;;;;45.25;37.00;;;;;16.76;31.16;102215.81;2104357;28;47463;-61
2022/03/24 00:16:38;;;;;;;;;52.25;42.00;;;;;16.75;31.04;102211.38;2103777;28;47201;-63
2022/03/24 00:17:38;;;;;;;;;42.25;35.50;;;;;16.74;30.81;102210.47;2104496;27;47733;-63
2022/03/24 00:18:39;;;;;;;;;41.25;35.75;;;;;16.74;30.82;102206.91;2104131;27;47413;-63
2022/03/24 00:19:39;;;;;;;;;43.25;36.75;;;;;16.73;31.30;102215.88;2103944;27;47165;-63
2022/03/24 00:20:40;;;;;;;;;45.25;38.00;;;;;16.72;31.35;102217.69;2104249;27;46959;-61
2022/03/24 00:21:41;;;;;;;;;45.00;38.25;;;;;16.71;30.86;102218.59;2103981;27;47674;-63
2022/03/24 00:22:41;;;;;;;;;45.20;38.40;;;;;16.70;31.46;102214.16;2103864;28;47724;-64
2022/03/24 00:23:43;;;;;;;;;47.75;39.50;;;;;16.69;30.96;102207.03;2104303;28;47504;-62
2022/03/24 00:24:43;;;;;;;;;47.80;38.80;;;;;16.68;31.54;102215.13;2103588;28;47736;-64
2022/03/24 00:25:43;;;;;;;;;44.50;37.25;;;;;16.67;31.45;102210.66;2102631;28;47550;-63
2022/03/24 00:26:44;;;;;;;;;45.25;37.50;;;;;16.67;31.43;102216.00;2095900;28;47942;-63
2022/03/24 00:27:44;;;;;;;;;47.00;38.00;;;;;16.65;31.62;102212.50;2096377;28;47616;-64
2022/03/24 00:28:45;;;;;;;;;45.25;37.75;;;;;16.63;31.50;102207.13;2104352;28;48152;-61
2022/03/24 00:29:45;;;;;;;;;29.75;28.25;;;;;16.62;31.19;102201.81;2104108;28;47847;-64
2022/03/24 00:30:46;;;;;;;;;45.00;38.00;;;;;16.61;31.46;102208.09;2091788;28;47976;-61
2022/03/24 00:31:46;;;;;;;;;45.00;37.25;;;;;16.60;31.17;102204.53;2094187;28;47659;-62
2022/03/24 00:32:46;;;;;;;;;45.50;38.25;;;;;16.61;31.66;102208.09;2103853;28;47777;-64
2022/03/24 00:33:47;;;;;;;;;47.00;39.50;;;;;16.59;31.34;102202.78;2103500;27;47632;-63
2022/03/24 00:34:47;;;;;;;;;46.00;38.00;;;;;16.59;31.65;102205.44;2103968;28;47362;-64
2022/03/24 00:35:48;;;;;;;;;39.00;34.50;;;;;16.58;31.51;102201.00;2103976;27;47435;-60
2022/03/24 00:36:48;;;;;;;;;49.00;40.25;;;;;16.56;31.11;102202.84;2104360;28;47258;-62
2022/03/24 00:37:48;;;;;;;;;49.25;40.00;;;;;16.57;30.85;102203.72;2103864;28;47486;-61
2022/03/24 00:38:52;;;;;;;;;47.00;39.25;;;;;16.54;31.25;102202.00;2104139;28;47485;-63
2022/03/24 00:39:53;;;;;;;;;48.00;40.40;;;;;16.54;31.52;102201.13;2102670;27;47885;-62
2022/03/24 00:40:54;;;;;;;;;41.50;36.00;;;;;16.53;31.29;102196.69;2103964;27;47411;-64
2022/03/24 00:41:54;;;;;;;;;47.60;40.00;;;;;16.52;31.01;102197.59;2103986;28;48165;-63
2022/03/24 00:42:55;;;;;;;;;44.25;37.25;;;;;16.51;30.90;102191.34;2086155;28;48052;-63
2022/03/24 00:43:56;;;;;;;;;44.75;36.00;;;;;16.50;30.91;102194.94;2086193;28;47608;-63
2022/03/24 00:44:57;;;;;;;;;46.25;39.00;;;;;16.48;30.80;102196.78;2104087;28;47941;-62
2022/03/24 00:45:59;;;;;;;;;45.20;37.20;;;;;16.47;30.99;102195.88;2104221;28;47606;-62
2022/03/24 00:46:59;;;;;;;;;50.00;42.20;;;;;16.46;31.15;102195.94;2104094;28;47696;-64
2022/03/24 00:48:00;;;;;;;;;47.50;40.50;;;;;16.45;31.02;102197.72;2085736;28;47834;-60
2022/03/24 00:49:01;;;;;;;;;49.25;40.75;;;;;16.44;31.26;102197.75;2086202;28;47860;-64
2022/03/24 00:50:01;;;;;;;;;47.75;38.50;;;;;16.43;31.50;102194.22;2103516;28;47618;-64
2022/03/24 00:51:03;;;;;;;;;48.50;40.25;;;;;16.42;31.14;102192.44;2095274;28;47557;-62
2022/03/24 00:52:05;;;;;;;;;41.00;36.00;;;;;16.40;31.15;102186.25;2095019;28;47395;-64
2022/03/24 00:53:05;;;;;;;;;48.40;39.00;;;;;16.40;31.10;102199.63;2103944;28;47805;-63
2022/03/24 00:54:07;;;;;;;;;50.50;41.00;;;;;16.40;31.47;102190.72;2103713;28;47844;-61
2022/03/24 00:55:12;;;;;;;;;47.80;40.00;;;;;16.39;31.46;102195.19;2103845;28;47626;-64
2022/03/24 00:56:13;;;;;;;;;47.80;39.40;;;;;16.36;31.06;102192.56;2103937;28;48145;-61
2022/03/24 00:57:13;;;;;;;;;46.25;38.50;;;;;16.36;30.96;102197.91;2104018;28;47657;-64
2022/03/24 00:58:14;;;;;;;;;50.50;40.25;;;;;16.34;31.54;102191.72;2103875;28;47845;-60
2022/03/24 00:59:14;;;;;;;;;45.50;38.50;;;;;16.33;30.89;102191.75;2104026;28;47623;-62
2022/03/24 01:00:16;;;;;;;;;51.00;41.50;;;;;16.31;31.19;102191.78;2103822;28;47548;-62
2022/03/24 01:01:17;;;;;;;;;46.40;37.40;;;;;16.31;30.92;102191.78;2104236;28;46586;-62
2022/03/24 01:02:17;;;;;;;;;48.50;40.75;;;;;16.31;31.24;102193.59;2104091;28;47361;-63
2022/03/24 01:03:17;;;;;;;;;42.50;34.00;;;;;16.30;31.26;102190.03;2104016;28;47600;-63
2022/03/24 01:04:18;;;;;;;;;47.00;39.50;;;;;16.29;31.10;102188.28;2104043;28;47433;-62
2022/03/24 01:05:23;;;;;;;;;46.50;37.25;;;;;16.29;31.35;102201.66;2103705;28;47299;-63
2022/03/24 01:06:26;;;;;;;;;38.80;32.60;;;;;16.28;30.88;102199.03;2099472;28;47912;-62
2022/03/24 01:07:28;;;;;;;;;44.00;37.20;;;;;16.28;31.37;102191.00;2103964;28;47836;-63
2022/03/24 01:08:29;;;;;;;;;49.60;41.40;;;;;16.27;30.75;102187.44;2103638;28;47615;-62
2022/03/24 01:09:30;;;;;;;;;49.40;40.20;;;;;16.26;30.89;102182.06;2103540;28;47345;-64
2022/03/24 01:10:31;;;;;;;;;48.20;40.20;;;;;16.26;31.05;102190.13;2103698;28;47758;-64
2022/03/24 01:11:32;;;;;;;;;49.00;41.00;;;;;16.24;31.14;102189.28;2105023;27;47762;-65
2022/03/24 01:12:34;;;;;;;;;45.25;38.00;;;;;16.22;31.40;102186.63;2112459;27;48007;-63
2022/03/24 01:13:36;;;;;;;;;48.60;39.00;;;;;16.22;31.15;102188.44;2104281;27;47689;-64
2022/03/24 01:14:37;;;;;;;;;48.60;39.60;;;;;16.21;31.20;102186.66;2103137;28;47985;-63
2022/03/24 01:15:37;;;;;;;;;46.50;39.25;;;;;16.19;30.84;102182.22;2103571;28;47949;-63
2022/03/24 01:16:37;;;;;;;;;42.75;36.25;;;;;16.17;30.85;102181.38;2104022;28;47385;-61
2022/03/24 01:17:38;;;;;;;;;47.00;39.50;;;;;16.16;31.37;102176.94;2104175;28;47787;-62
2022/03/24 01:18:40;;;;;;;;;42.25;35.75;;;;;16.16;30.85;102182.31;2103834;28;47988;-63
2022/03/24 01:19:40;;;;;;;;;48.80;39.80;;;;;16.14;31.02;102183.25;2103922;28;47931;-63
2022/03/24 01:20:43;;;;;;;;;50.00;41.00;;;;;16.12;31.27;102182.38;2103868;28;47228;-60
2022/03/24 01:21:44;;;;;;;;;47.00;38.80;;;;;16.12;30.89;102179.69;2103571;28;47653;-60
2022/03/24 01:22:45;;;;;;;;;48.00;38.00;;;;;16.11;30.95;102181.50;2103862;28;47438;-64
2022/03/24 01:23:46;;;;;;;;;36.00;29.75;;;;;16.10;31.43;102174.38;2103726;28;47345;-63
2022/03/24 01:24:47;;;;;;;;;45.20;38.00;;;;;16.09;31.27;102174.41;2103767;28;48058;-63
2022/03/24 01:25:48;;;;;;;;;49.00;41.75;;;;;16.07;31.26;102177.13;2103905;28;47669;-63
2022/03/24 01:26:49;;;;;;;;;48.40;38.40;;;;;16.06;31.46;102180.72;2103958;28;47524;-63
2022/03/24 01:27:51;;;;;;;;;48.50;39.00;;;;;16.06;31.42;102180.72;2104440;28;45721;-62
2022/03/24 01:28:52;;;;;;;;;46.60;38.40;;;;;16.05;31.36;102173.63;2103980;28;48137;-62
2022/03/24 01:29:55;;;;;;;;;47.25;38.00;;;;;16.05;30.92;102173.63;2104034;28;47246;-62
2022/03/24 01:30:56;;;;;;;;;44.60;38.60;;;;;16.04;31.29;102176.31;2086072;28;47611;-62
2022/03/24 01:31:56;;;;;;;;;44.50;37.50;;;;;16.04;31.05;102181.69;2086886;28;47713;-63
2022/03/24 01:32:57;;;;;;;;;45.75;39.25;;;;;16.02;31.60;102173.69;2103851;28;47594;-63
2022/03/24 01:33:58;;;;;;;;;44.75;38.25;;;;;16.02;31.74;102178.16;2104003;28;47848;-62
2022/03/24 01:34:59;;;;;;;;;49.20;40.80;;;;;16.00;31.37;102178.16;2103630;28;47833;-63
2022/03/24 01:35:59;;;;;;;;;46.40;38.60;;;;;15.99;31.64;102181.75;2103621;28;47673;-62
2022/03/24 01:37:00;;;;;;;;;44.50;37.75;;;;;15.98;31.47;102176.44;2103888;28;48190;-62
2022/03/24 01:38:01;;;;;;;;;46.50;39.25;;;;;15.97;31.39;102175.56;2104184;27;47566;-61
2022/03/24 01:39:01;;;;;;;;;49.50;38.75;;;;;15.97;31.78;102177.34;2105148;28;47449;-62
2022/03/24 01:40:04;;;;;;;;;46.00;39.50;;;;;15.96;31.32;102173.78;2105029;28;45983;-63
2022/03/24 01:41:07;;;;;;;;;46.80;39.60;;;;;15.97;31.87;102174.69;2105141;28;47921;-63
2022/03/24 01:42:08;;;;;;;;;44.80;38.60;;;;;15.94;31.90;102164.91;2105405;28;46384;-64
2022/03/24 01:43:08;;;;;;;;;47.75;38.25;;;;;15.94;31.84;102167.59;2105404;28;47814;-63
2022/03/24 01:44:14;;;;;;;;;42.75;36.75;;;;;15.94;31.83;102170.28;2105203;28;47782;-63
2022/03/24 01:45:14;;;;;;;;;44.40;38.00;;;;;15.94;31.52;102166.72;2105202;28;47527;-63
2022/03/24 01:46:19;;;;;;;;;48.50;38.75;;;;;15.94;31.44;102166.72;2105072;28;48013;-60
2022/03/24 01:47:20;;;;;;;;;45.80;39.00;;;;;15.93;31.60;102168.50;2100353;28;47743;-60
2022/03/24 01:48:21;;;;;;;;;44.75;37.50;;;;;15.91;31.85;102159.63;2105000;28;47400;-61
2022/03/24 01:49:21;;;;;;;;;48.50;39.00;;;;;15.90;31.43;102160.56;2105019;28;47690;-63
2022/03/24 01:50:21;;;;;;;;;44.75;35.75;;;;;15.89;31.55;102159.66;2105382;28;47945;-65
2022/03/24 01:51:22;;;;;;;;;45.25;39.00;;;;;15.87;31.60;102166.81;2105209;28;47533;-62
2022/03/24 01:52:24;;;;;;;;;47.25;39.00;;;;;15.86;31.45;102156.16;2105088;28;47528;-64
2022/03/24 01:53:24;;;;;;;;;46.20;38.60;;;;;15.85;31.30;102165.97;2105264;28;47912;-63
2022/03/24 01:54:30;;;;;;;;;44.75;36.75;;;;;15.83;31.52;102157.09;2105424;28;45445;-61
2022/03/24 01:55:32;;;;;;;;;41.40;35.40;;;;;15.84;31.77;102157.97;2105002;28;47868;-62
2022/03/24 01:56:32;;;;;;;;;45.80;37.60;;;;;15.83;31.56;102151.75;2105069;28;48183;-62
2022/03/24 01:57:34;;;;;;;;;42.75;36.00;;;;;15.82;31.90;102162.50;2105210;28;47747;-61
2022/03/24 01:58:37;;;;;;;;;44.80;38.40;;;;;15.81;31.62;102161.63;2105115;28;48041;-62
2022/03/24 01:59:40;;;;;;;;;46.40;38.00;;;;;15.79;31.73;102160.78;2087186;28;47654;-61
2022/03/24 02:00:44;;;;;;;;;46.80;39.00;;;;;15.80;32.01;102167.00;2087399;28;47535;-64
2022/03/24 02:01:44;;;;;;;;;45.00;37.00;;;;;15.79;31.64;102159.88;2104983;28;47904;-62
2022/03/24 02:02:45;;;;;;;;;49.75;40.50;;;;;15.79;31.94;102159.88;2105121;28;47326;-63
2022/03/24 02:03:46;;;;;;;;;42.25;36.00;;;;;15.78;31.59;102155.44;2096219;28;47426;-62
2022/03/24 02:04:47;;;;;;;;;48.50;39.25;;;;;15.78;32.00;102159.00;2095981;28;47578;-63
2022/03/24 02:05:47;;;;;;;;;36.25;31.75;;;;;15.79;32.17;102159.88;2104897;28;47624;-61
2022/03/24 02:06:48;;;;;;;;;47.50;39.25;;;;;15.78;31.64;102155.44;2105015;28;47721;-63
2022/03/24 02:07:50;;;;;;;;;47.00;38.25;;;;;15.77;31.71;102161.72;2105137;28;47670;-60
2022/03/24 02:08:50;;;;;;;;;38.60;33.60;;;;;15.77;31.68;102156.38;2105117;28;47841;-63
2022/03/24 02:09:51;;;;;;;;;45.50;39.00;;;;;15.75;31.81;102148.38;2094792;28;47322;-62
2022/03/24 02:10:51;;;;;;;;;47.75;38.75;;;;;15.75;31.98;102153.72;2095555;28;47823;-63
2022/03/24 02:11:52;;;;;;;;;43.25;37.50;;;;;15.73;32.19;102152.84;2108989;27;47636;-60
2022/03/24 02:12:54;;;;;;;;;44.00;37.00;;;;;15.72;32.07;102153.75;2111714;27;47354;-65
2022/03/24 02:13:55;;;;;;;;;45.60;38.20;;;;;15.71;32.04;102149.31;2104809;28;48279;-60
2022/03/24 02:14:58;;;;;;;;;50.25;40.25;;;;;15.70;31.98;102152.91;2105067;28;47417;-62
2022/03/24 02:16:01;;;;;;;;;45.60;38.80;;;;;15.68;31.83;102151.19;2086737;28;47824;-57
2022/03/24 02:17:02;;;;;;;;;43.60;38.00;;;;;15.67;32.19;102152.09;2087440;28;47741;-63
2022/03/24 02:18:03;;;;;;;;;48.20;38.00;;;;;15.65;32.32;102149.47;2078547;28;47793;-60
2022/03/24 02:19:21;;;;;;;;;42.00;34.75;;;;;15.64;32.29;102153.06;2079025;28;47141;-63
2022/03/24 02:20:23;;;;;;;;;42.80;36.40;;;;;15.63;32.21;102159.31;2105238;28;47682;-63
2022/03/24 02:21:23;;;;;;;;;45.80;38.20;;;;;15.60;31.93;102152.22;2104502;28;47898;-63
2022/03/24 02:22:27;;;;;;;;;46.75;40.00;;;;;15.60;32.07;102156.69;2104620;28;47750;-64
2022/03/24 02:23:27;;;;;;;;;45.00;35.80;;;;;15.57;32.20;102146.88;2104843;28;47268;-64
2022/03/24 02:24:28;;;;;;;;;46.25;38.00;;;;;15.56;32.13;102155.81;2104628;28;47920;-62
2022/03/24 02:25:32;;;;;;;;;46.75;38.00;;;;;15.55;32.44;102150.50;2096084;28;47568;-64
2022/03/24 02:26:35;;;;;;;;;44.60;37.80;;;;;15.54;32.38;102157.66;2096404;28;48292;-64
2022/03/24 02:27:37;;;;;;;;;44.20;38.00;;;;;15.52;32.63;102154.13;2099471;28;48105;-62
2022/03/24 02:28:38;;;;;;;;;48.60;39.80;;;;;15.51;32.58;102159.53;2104950;28;47602;-62
2022/03/24 02:29:38;;;;;;;;;45.80;38.80;;;;;15.49;32.29;102153.28;2105021;28;45211;-62
2022/03/24 02:30:39;;;;;;;;;40.50;35.00;;;;;15.47;32.57;102153.31;2104663;28;47536;-61
2022/03/24 02:31:48;;;;;;;;;49.25;39.75;;;;;15.46;32.31;102154.25;2104958;28;47225;-63
2022/03/24 02:32:48;;;;;;;;;44.40;36.40;;;;;15.44;32.52;102152.50;2104658;28;47679;-62
2022/03/24 02:34:37;;;;;;;;;42.75;36.00;;;;;15.42;32.62;102152.53;2105105;28;46678;-61
2022/03/24 02:35:12;;;;;;;;;44.40;36.60;;;;;15.41;32.34;102153.47;2102545;28;47784;-62
2022/03/24 02:36:13;;;;;;;;;41.00;35.00;;;;;15.43;32.45;102158.78;2104855;28;47626;-61
2022/03/24 02:37:17;;;;;;;;;34.00;30.75;;;;;15.41;32.68;102156.13;2104807;28;47544;-63
2022/03/24 02:38:21;;;;;;;;;47.00;38.00;;;;;15.40;33.07;102150.81;2105018;28;47881;-61
2022/03/24 02:39:22;;;;;;;;;43.40;35.00;;;;;15.39;32.59;102157.06;2104807;28;47830;-62
2022/03/24 02:40:22;;;;;;;;;48.25;41.00;;;;;15.40;32.45;102150.81;2101476;27;47923;-63
2022/03/24 02:41:23;;;;;;;;;43.00;36.50;;;;;15.38;32.67;102147.28;2104778;27;47777;-60
2022/03/24 02:42:27;;;;;;;;;39.80;35.40;;;;;15.37;32.45;102154.41;2104732;28;47486;-62
2022/03/24 02:43:27;;;;;;;;;46.00;37.40;;;;;15.36;32.78;102144.63;2105285;28;47576;-61
2022/03/24 02:44:33;;;;;;;;;44.50;37.50;;;;;15.35;32.54;102148.19;2104868;28;47388;-61
2022/03/24 02:45:33;;;;;;;;;42.20;34.80;;;;;15.35;32.52;102147.31;2105019;28;47867;-65
2022/03/24 02:46:33;;;;;;;;;42.75;37.00;;;;;15.34;32.68;102145.56;2104749;28;47745;-64
2022/03/24 02:47:34;;;;;;;;;45.00;38.00;;;;;15.34;33.04;102150.91;2104636;28;47961;-59
2022/03/24 02:48:35;;;;;;;;;41.75;36.00;;;;;15.34;32.54;102146.44;2104973;28;47328;-61
2022/03/24 02:49:35;;;;;;;;;43.50;36.25;;;;;15.34;32.95;102154.47;2104188;27;47794;-62
2022/03/24 02:50:35;;;;;;;;;42.00;35.00;;;;;15.32;32.76;102151.81;2104814;28;46939;-64
2022/03/24 02:51:36;;;;;;;;;43.75;36.75;;;;;15.32;32.89;102153.63;2104857;28;47588;-63
2022/03/24 02:52:38;;;;;;;;;47.00;39.00;;;;;15.31;32.91;102143.84;2104929;28;47322;-65
2022/03/24 02:53:38;;;;;;;;;41.20;35.80;;;;;15.31;32.93;102154.53;2104684;28;47982;-64
2022/03/24 02:54:38;;;;;;;;;46.00;38.50;;;;;15.31;32.60;102149.19;2104541;28;47916;-64
2022/03/24 02:55:39;;;;;;;;;42.75;35.75;;;;;15.31;32.97;102151.84;2104977;28;47846;-64
2022/03/24 02:56:42;;;;;;;;;41.50;35.25;;;;;15.29;32.93;102154.56;2104570;28;47756;-64
2022/03/24 02:57:42;;;;;;;;;42.60;36.00;;;;;15.27;33.25;102151.03;2104425;28;47704;-63
2022/03/24 02:58:43;;;;;;;;;42.75;35.50;;;;;15.27;32.83;102156.38;2104647;28;47647;-64
2022/03/24 02:59:44;;;;;;;;;43.75;36.25;;;;;15.27;33.23;102159.06;2104599;28;47631;-61
2022/03/24 03:00:44;;;;;;;;;38.75;35.25;;;;;15.26;32.92;102151.06;2104738;28;47666;-61
2022/03/24 03:01:52;;;;;;;;;41.00;35.00;;;;;15.24;32.87;102147.50;2104159;28;48111;-63
2022/03/24 03:02:53;;;;;;;;;41.20;35.60;;;;;15.23;33.27;102156.44;2104704;28;47728;-62
2022/03/24 03:03:54;;;;;;;;;45.50;38.00;;;;;15.22;33.32;102154.69;2104860;28;47259;-61
2022/03/24 03:04:54;;;;;;;;;43.50;36.50;;;;;15.21;32.92;102150.25;2104710;28;47530;-63
2022/03/24 03:05:57;;;;;;;;;45.50;38.25;;;;;15.20;32.99;102146.69;2104775;28;47025;-60
2022/03/24 03:06:58;;;;;;;;;43.20;35.80;;;;;15.18;33.27;102147.63;2104899;28;47482;-63
2022/03/24 03:07:58;;;;;;;;;45.80;38.00;;;;;15.16;33.42;102146.78;2086505;28;48273;-64
2022/03/24 03:09:01;;;;;;;;;44.25;38.00;;;;;15.15;33.68;102150.38;2087064;28;47586;-62
2022/03/24 03:10:01;;;;;;;;;44.20;38.20;;;;;15.13;33.09;102138.84;2104134;28;47958;-64
2022/03/24 03:11:02;;;;;;;;;48.00;39.75;;;;;15.13;33.16;102150.41;2095770;28;47412;-62
2022/03/24 03:12:04;;;;;;;;;37.00;33.50;;;;;15.13;33.20;102147.72;2092516;28;47241;-63
2022/03/24 03:13:04;;;;;;;;;40.00;35.80;;;;;15.12;33.50;102148.66;2100495;28;47769;-63
2022/03/24 03:14:04;;;;;;;;;46.25;38.75;;;;;15.13;33.47;102154.88;2104715;28;47872;-63
2022/03/24 03:15:06;;;;;;;;;42.00;36.50;;;;;15.12;33.14;102151.31;2104572;28;47825;-62
2022/03/24 03:16:06;;;;;;;;;40.20;34.80;;;;;15.12;33.38;102150.41;2104345;28;47369;-62
2022/03/24 03:17:08;;;;;;;;;45.25;37.25;;;;;15.12;33.35;102154.00;2104685;28;47411;-60
2022/03/24 03:18:08;;;;;;;;;44.60;37.60;;;;;15.14;33.64;102153.97;2104561;28;47694;-62
2022/03/24 03:19:09;;;;;;;;;44.75;35.75;;;;;15.12;33.60;102154.00;2086430;28;47431;-60
2022/03/24 03:20:10;;;;;;;;;47.75;38.75;;;;;15.11;33.26;102154.88;2086428;28;47566;-60
2022/03/24 03:21:11;;;;;;;;;44.80;37.40;;;;;15.10;33.38;102149.56;2086337;28;47635;-63
2022/03/24 03:22:14;;;;;;;;;45.60;37.80;;;;;15.08;33.43;102151.38;2086865;28;47574;-61
2022/03/24 03:23:14;;;;;;;;;43.80;37.00;;;;;15.06;33.64;102151.41;2104484;28;47545;-62
2022/03/24 03:24:16;;;;;;;;;39.25;33.25;;;;;15.06;33.61;102151.41;2104414;28;47551;-63
2022/03/24 03:25:16;;;;;;;;;45.60;38.40;;;;;15.06;33.80;102151.41;2104744;28;47445;-62
2022/03/24 03:26:17;;;;;;;;;45.25;39.00;;;;;15.06;33.73;102150.53;2095209;28;48046;-62
2022/03/24 03:27:18;;;;;;;;;44.20;37.20;;;;;15.07;33.29;102155.84;2095682;28;47755;-63
2022/03/24 03:28:18;;;;;;;;;43.75;36.75;;;;;15.07;33.63;102150.50;2104508;28;47847;-63
2022/03/24 03:29:22;;;;;;;;;44.25;37.25;;;;;15.06;33.57;102153.22;2104488;28;47184;-62
2022/03/24 03:30:23;;;;;;;;;46.00;37.80;;;;;15.05;33.20;102156.78;2104448;28;47703;-60
2022/03/24 03:31:23;;;;;;;;;42.50;36.25;;;;;15.04;33.69;102155.91;2104333;28;48001;-62
2022/03/24 03:32:24;;;;;;;;;45.50;39.00;;;;;15.05;33.48;102163.03;2104328;28;47841;-62
2022/03/24 03:33:25;;;;;;;;;47.25;39.75;;;;;15.05;33.69;102154.13;2104427;28;47694;-61
2022/03/24 03:34:26;;;;;;;;;42.20;35.00;;;;;15.04;33.49;102155.91;2104162;28;47470;-58
2022/03/24 03:35:29;;;;;;;;;44.00;37.25;;;;;15.02;33.79;102150.59;2104374;28;47760;-63
2022/03/24 03:36:31;;;;;;;;;45.80;37.60;;;;;15.02;33.29;102160.41;2094217;28;47930;-63
2022/03/24 03:37:31;;;;;;;;;40.80;35.60;;;;;15.02;33.31;102157.72;2095140;28;47413;-62
2022/03/24 03:38:33;;;;;;;;;44.25;36.75;;;;;15.02;33.23;102152.38;2104581;28;47821;-61
2022/03/24 03:39:34;;;;;;;;;41.00;34.80;;;;;15.02;33.63;102155.06;2104356;28;47939;-64
2022/03/24 03:40:35;;;;;;;;;40.80;35.80;;;;;15.02;33.38;102160.41;2086341;28;48195;-61
2022/03/24 03:41:37;;;;;;;;;44.00;37.75;;;;;15.02;33.59;102152.38;2086528;28;47773;-63
2022/03/24 03:42:37;;;;;;;;;43.60;36.00;;;;;15.02;33.74;102152.38;2104666;28;47922;-64
2022/03/24 03:43:38;;;;;;;;;42.75;36.00;;;;;15.02;33.85;102158.63;2104505;28;47589;-64
2022/03/24 03:44:39;;;;;;;;;47.25;38.00;;;;;15.04;33.83;102163.03;2104111;28;47704;-62
2022/03/24 03:45:39;;;;;;;;;46.00;38.00;;;;;15.03;33.58;102154.16;2094679;28;47444;-60
2022/03/24 03:46:40;;;;;;;;;42.75;36.75;;;;;15.02;33.59;102150.59;2094598;28;47405;-63
2022/03/24 03:47:40;;;;;;;;;45.75;39.00;;;;;15.03;33.90;102151.47;2103458;28;47527;-64
2022/03/24 03:48:41;;;;;;;;;42.25;36.25;;;;;15.02;33.94;102155.94;2104175;28;46519;-61
2022/03/24 03:49:41;;;;;;;;;43.25;36.00;;;;;15.04;33.21;102157.69;2104409;28;47974;-63
2022/03/24 03:50:42;;;;;;;;;43.25;35.25;;;;;15.02;34.00;102152.38;2104350;28;47464;-64
2022/03/24 03:51:42;;;;;;;;;45.25;37.00;;;;;15.04;33.57;102152.34;2104160;28;47735;-63
2022/03/24 03:52:43;;;;;;;;;41.75;35.25;;;;;15.02;34.01;102152.38;2104611;28;48034;-61
2022/03/24 03:53:43;;;;;;;;;44.75;36.50;;;;;15.01;33.97;102148.84;2104388;28;47264;-63
2022/03/24 03:54:44;;;;;;;;;44.50;36.50;;;;;14.98;33.77;102146.19;2104383;28;47520;-61
2022/03/24 03:55:44;;;;;;;;;45.00;36.25;;;;;14.97;34.07;102152.44;2104215;28;47228;-63
2022/03/24 03:56:45;;;;;;;;;35.75;32.25;;;;;14.96;33.97;102152.47;2104393;28;47540;-63
2022/03/24 03:57:45;;;;;;;;;39.25;34.25;;;;;14.95;33.70;102151.59;2104605;28;47502;-63
2022/03/24 03:58:46;;;;;;;;;47.50;39.25;;;;;14.95;33.96;102151.59;2104387;28;47628;-60
2022/03/24 03:59:46;;;;;;;;;47.00;38.75;;;;;14.95;33.98;102156.06;2096527;28;48151;-63
2022/03/24 04:00:52;;;;;;;;;42.75;36.00;;;;;14.93;33.81;102157.88;2104444;27;47943;-63
2022/03/24 04:01:55;;;;;;;;;44.20;38.40;;;;;14.91;34.17;102154.34;2104371;28;48052;-63
2022/03/24 04:02:57;;;;;;;;;47.20;40.00;;;;;14.87;34.30;102153.53;2104605;28;47718;-63
2022/03/24 04:03:58;;;;;;;;;44.20;38.20;;;;;14.86;34.02;102151.72;2104294;28;47835;-62
2022/03/24 04:04:58;;;;;;;;;46.75;39.00;;;;;14.86;33.94;102154.41;2104059;28;47113;-65
2022/03/24 04:06:05;;;;;;;;;45.00;38.25;;;;;14.85;34.26;102152.66;2104433;28;48082;-61
2022/03/24 04:07:05;;;;;;;;;40.20;35.40;;;;;14.86;34.07;102153.53;2104249;28;48068;-64
2022/03/24 04:08:09;;;;;;;;;47.00;38.75;;;;;14.87;34.24;102150.84;2104227;28;48214;-63
2022/03/24 04:09:09;;;;;;;;;41.20;35.40;;;;;14.88;34.08;102146.38;2104171;28;47649;-63
2022/03/24 04:10:10;;;;;;;;;42.00;35.25;;;;;14.90;34.00;102149.91;2085909;28;45732;-61
2022/03/24 04:11:12;;;;;;;;;51.50;40.75;;;;;14.90;34.00;102153.47;2086511;28;47251;-62
2022/03/24 04:12:13;;;;;;;;;45.60;38.00;;;;;14.91;34.22;102149.00;2111086;27;47961;-62
2022/03/24 04:13:15;;;;;;;;;47.40;39.80;;;;;14.90;34.39;102148.13;2107770;27;47762;-62
2022/03/24 04:14:15;;;;;;;;;47.40;38.40;;;;;14.91;34.19;102154.34;2104201;28;47823;-62
2022/03/24 04:15:15;;;;;;;;;48.50;41.00;;;;;14.91;34.15;102149.00;2104423;28;47738;-59
2022/03/24 04:16:16;;;;;;;;;40.25;35.75;;;;;14.89;33.75;102151.72;2104269;28;47779;-62
2022/03/24 04:17:18;;;;;;;;;43.00;36.00;;;;;14.88;34.00;102146.38;2104392;28;47795;-60
2022/03/24 04:18:18;;;;;;;;;47.80;38.80;;;;;14.87;34.25;102150.84;2104216;28;47365;-60
2022/03/24 04:19:19;;;;;;;;;48.50;40.00;;;;;14.88;33.93;102149.94;2104306;28;47617;-63
2022/03/24 04:20:23;;;;;;;;;45.40;38.80;;;;;14.87;34.18;102149.97;2104188;28;48365;-62
2022/03/24 04:21:23;;;;;;;;;51.60;42.00;;;;;14.85;34.09;102146.41;2104231;28;47745;-62
2022/03/24 04:22:24;;;;;;;;;47.25;40.50;;;;;14.87;34.22;102155.31;2077875;28;47557;-58
2022/03/24 04:23:25;;;;;;;;;51.20;40.00;;;;;14.86;34.41;102151.72;2078163;28;48006;-62
2022/03/24 04:24:25;;;;;;;;;47.00;39.00;;;;;14.85;34.07;102152.66;2103945;28;47272;-63
2022/03/24 04:25:27;;;;;;;;;46.00;38.75;;;;;14.82;34.32;102149.16;2104187;28;47653;-62
2022/03/24 04:26:27;;;;;;;;;49.60;41.40;;;;;14.81;34.32;102152.72;2104172;28;47543;-64
2022/03/24 04:27:28;;;;;;;;;47.25;39.75;;;;;14.80;34.38;102154.53;2086256;28;47693;-62
2022/03/24 04:28:28;;;;;;;;;44.00;37.75;;;;;14.80;34.43;102151.84;2085071;28;47539;-63
2022/03/24 04:29:29;;;;;;;;;45.25;39.25;;;;;14.79;34.14;102155.44;2104262;28;46782;-63
2022/03/24 04:30:30;;;;;;;;;38.75;33.50;;;;;14.79;34.44;102154.56;2104152;28;47543;-63
2022/03/24 04:31:31;;;;;;;;;48.40;39.20;;;;;14.78;34.22;102152.78;2104360;28;47670;-63
2022/03/24 04:32:31;;;;;;;;;48.00;39.25;;;;;14.77;34.29;102151.91;2104221;28;48000;-63
2022/03/24 04:33:32;;;;;;;;;46.75;39.00;;;;;14.78;34.41;102159.03;2103723;28;47655;-62
2022/03/24 04:34:32;;;;;;;;;46.00;38.00;;;;;14.76;34.37;102155.50;2104234;28;47772;-64
2022/03/24 04:35:33;;;;;;;;;48.25;40.25;;;;;14.76;34.35;102152.81;2104086;28;47347;-61
2022/03/24 04:36:33;;;;;;;;;46.40;39.80;;;;;14.75;34.36;102151.06;2104234;28;48123;-64
2022/03/24 04:37:35;;;;;;;;;45.50;38.25;;;;;14.75;34.45;102153.72;2103676;28;47692;-62
2022/03/24 04:38:37;;;;;;;;;49.40;40.40;;;;;14.72;34.16;102149.28;2104139;28;48030;-59